sensor_id;sensor_type;location;lat;lon;timestamp;P1;durP1;ratioP1;P2;durP2;ratioP2
15153;SDS011;7677;41.896;25.004;2023-07-29T00:00:55;1.88;;;1.75;;
15153;SDS011;7677;41.896;25.004;2023-07-29T00:03:22;2.35;;;2.15;;
15153;SDS011;7677;41.896;25.004;2023-07-29T00:05:49;2.40;;;2.20;;
15153;SDS011;7677;41.896;25.004;2023-07-29T00:08:16;2.40;;;2.20;;
15153;SDS011;7677;41.896;25.004;2023-07-29T00:10:43;2.97;;;2.10;;
15153;SDS011;7677;41.896;25.004;2023-07-29T00:13:10;2.53;;;2.10;;
15153;SDS011;7677;41.896;25.004;2023-07-29T00:15:38;2.80;;;2.17;;
15153;SDS011;7677;41.896;25.004;2023-07-29T00:18:05;2.65;;;1.85;;
15153;SDS011;7677;41.896;25.004;2023-07-29T00:20:32;2.15;;;2.05;;
15153;SDS011;7677;41.896;25.004;2023-07-29T00:22:59;2.15;;;2.03;;
15153;SDS011;7677;41.896;25.004;2023-07-29T00:25:26;3.03;;;2.10;;
15153;SDS011;7677;41.896;25.004;2023-07-29T00:27:55;2.38;;;2.17;;
15153;SDS011;7677;41.896;25.004;2023-07-29T00:30:23;2.00;;;1.90;;
15153;SDS011;7677;41.896;25.004;2023-07-29T00:32:51;1.80;;;1.70;;
15153;SDS011;7677;41.896;25.004;2023-07-29T00:35:18;2.30;;;2.10;;
15153;SDS011;7677;41.896;25.004;2023-07-29T00:37:45;2.72;;;2.50;;
15153;SDS011;7677;41.896;25.004;2023-07-29T00:40:14;2.08;;;1.90;;
15153;SDS011;7677;41.896;25.004;2023-07-29T00:42:42;2.30;;;2.10;;
15153;SDS011;7677;41.896;25.004;2023-07-29T00:45:09;2.17;;;2.00;;
15153;SDS011;7677;41.896;25.004;2023-07-29T00:47:36;3.17;;;2.20;;
15153;SDS011;7677;41.896;25.004;2023-07-29T00:50:06;2.13;;;2.00;;
15153;SDS011;7677;41.896;25.004;2023-07-29T00:52:34;2.22;;;2.03;;
15153;SDS011;7677;41.896;25.004;2023-07-29T00:55:01;2.78;;;2.20;;
15153;SDS011;7677;41.896;25.004;2023-07-29T00:57:29;2.15;;;2.00;;
15153;SDS011;7677;41.896;25.004;2023-07-29T00:59:56;2.60;;;2.40;;
15153;SDS011;7677;41.896;25.004;2023-07-29T01:02:23;2.75;;;2.42;;
15153;SDS011;7677;41.896;25.004;2023-07-29T01:04:52;2.28;;;2.08;;
15153;SDS011;7677;41.896;25.004;2023-07-29T01:07:21;2.58;;;2.38;;
15153;SDS011;7677;41.896;25.004;2023-07-29T01:09:54;2.53;;;2.30;;
15153;SDS011;7677;41.896;25.004;2023-07-29T01:12:24;2.50;;;2.30;;
15153;SDS011;7677;41.896;25.004;2023-07-29T01:14:55;2.78;;;2.10;;
15153;SDS011;7677;41.896;25.004;2023-07-29T01:17:27;2.42;;;2.22;;
15153;SDS011;7677;41.896;25.004;2023-07-29T01:20:00;2.10;;;1.90;;
15153;SDS011;7677;41.896;25.004;2023-07-29T01:22:30;2.50;;;2.10;;
15153;SDS011;7677;41.896;25.004;2023-07-29T01:25:00;2.72;;;2.15;;
15153;SDS011;7677;41.896;25.004;2023-07-29T01:27:27;2.25;;;2.05;;
15153;SDS011;7677;41.896;25.004;2023-07-29T01:29:54;2.67;;;2.47;;
15153;SDS011;7677;41.896;25.004;2023-07-29T01:32:23;2.33;;;2.13;;
15153;SDS011;7677;41.896;25.004;2023-07-29T01:35:00;2.13;;;2.03;;
15153;SDS011;7677;41.896;25.004;2023-07-29T01:37:30;2.58;;;2.20;;
15153;SDS011;7677;41.896;25.004;2023-07-29T01:40:00;2.53;;;2.33;;
15153;SDS011;7677;41.896;25.004;2023-07-29T01:42:28;2.37;;;2.17;;
15153;SDS011;7677;41.896;25.004;2023-07-29T01:44:56;2.20;;;2.00;;
15153;SDS011;7677;41.896;25.004;2023-07-29T01:47:23;2.45;;;2.25;;
15153;SDS011;7677;41.896;25.004;2023-07-29T01:49:50;2.83;;;2.30;;
15153;SDS011;7677;41.896;25.004;2023-07-29T01:52:17;2.65;;;2.25;;
15153;SDS011;7677;41.896;25.004;2023-07-29T01:54:44;2.58;;;2.38;;
15153;SDS011;7677;41.896;25.004;2023-07-29T01:57:13;2.80;;;2.55;;
15153;SDS011;7677;41.896;25.004;2023-07-29T01:59:40;2.50;;;2.30;;
15153;SDS011;7677;41.896;25.004;2023-07-29T02:02:07;2.97;;;2.70;;
15153;SDS011;7677;41.896;25.004;2023-07-29T02:04:34;2.75;;;2.30;;
15153;SDS011;7677;41.896;25.004;2023-07-29T02:07:01;3.83;;;2.40;;
15153;SDS011;7677;41.896;25.004;2023-07-29T02:09:28;2.40;;;2.20;;
15153;SDS011;7677;41.896;25.004;2023-07-29T02:11:56;2.20;;;2.00;;
15153;SDS011;7677;41.896;25.004;2023-07-29T02:14:24;2.53;;;2.20;;
15153;SDS011;7677;41.896;25.004;2023-07-29T02:16:51;2.63;;;2.43;;
15153;SDS011;7677;41.896;25.004;2023-07-29T02:19:18;2.63;;;2.43;;
15153;SDS011;7677;41.896;25.004;2023-07-29T02:21:45;3.20;;;2.60;;
15153;SDS011;7677;41.896;25.004;2023-07-29T02:24:12;4.50;;;2.40;;
15153;SDS011;7677;41.896;25.004;2023-07-29T02:26:39;2.60;;;2.40;;
15153;SDS011;7677;41.896;25.004;2023-07-29T02:29:06;3.23;;;2.80;;
15153;SDS011;7677;41.896;25.004;2023-07-29T02:31:34;2.60;;;2.40;;
15153;SDS011;7677;41.896;25.004;2023-07-29T02:34:02;3.27;;;2.70;;
15153;SDS011;7677;41.896;25.004;2023-07-29T02:36:29;2.77;;;2.47;;
15153;SDS011;7677;41.896;25.004;2023-07-29T02:38:56;2.30;;;2.10;;
15153;SDS011;7677;41.896;25.004;2023-07-29T02:41:23;2.93;;;2.53;;
15153;SDS011;7677;41.896;25.004;2023-07-29T02:43:50;2.87;;;2.60;;
15153;SDS011;7677;41.896;25.004;2023-07-29T02:46:18;2.37;;;2.17;;
15153;SDS011;7677;41.896;25.004;2023-07-29T02:48:46;2.40;;;2.20;;
15153;SDS011;7677;41.896;25.004;2023-07-29T02:51:13;3.73;;;2.30;;
15153;SDS011;7677;41.896;25.004;2023-07-29T02:53:40;2.70;;;2.50;;
15153;SDS011;7677;41.896;25.004;2023-07-29T02:56:07;2.73;;;2.47;;
15153;SDS011;7677;41.896;25.004;2023-07-29T02:58:35;2.50;;;2.30;;
15153;SDS011;7677;41.896;25.004;2023-07-29T03:01:02;2.40;;;2.20;;
15153;SDS011;7677;41.896;25.004;2023-07-29T03:03:30;3.60;;;2.50;;
15153;SDS011;7677;41.896;25.004;2023-07-29T03:06:00;2.57;;;2.30;;
15153;SDS011;7677;41.896;25.004;2023-07-29T03:08:28;2.17;;;2.03;;
15153;SDS011;7677;41.896;25.004;2023-07-29T03:10:55;4.67;;;2.50;;
15153;SDS011;7677;41.896;25.004;2023-07-29T03:13:22;2.60;;;2.30;;
15153;SDS011;7677;41.896;25.004;2023-07-29T03:15:49;3.50;;;2.17;;
15153;SDS011;7677;41.896;25.004;2023-07-29T03:18:16;2.67;;;2.43;;
15153;SDS011;7677;41.896;25.004;2023-07-29T03:20:43;3.07;;;2.40;;
15153;SDS011;7677;41.896;25.004;2023-07-29T03:23:12;2.30;;;2.10;;
15153;SDS011;7677;41.896;25.004;2023-07-29T03:25:39;3.53;;;2.53;;
15153;SDS011;7677;41.896;25.004;2023-07-29T03:28:06;5.10;;;2.60;;
15153;SDS011;7677;41.896;25.004;2023-07-29T03:30:33;3.60;;;2.63;;
15153;SDS011;7677;41.896;25.004;2023-07-29T03:33:00;2.70;;;2.30;;
15153;SDS011;7677;41.896;25.004;2023-07-29T03:35:27;2.53;;;2.30;;
15153;SDS011;7677;41.896;25.004;2023-07-29T03:37:54;2.60;;;2.40;;
15153;SDS011;7677;41.896;25.004;2023-07-29T03:40:23;2.43;;;2.23;;
15153;SDS011;7677;41.896;25.004;2023-07-29T03:42:50;2.60;;;2.40;;
15153;SDS011;7677;41.896;25.004;2023-07-29T03:45:17;2.80;;;2.38;;
15153;SDS011;7677;41.896;25.004;2023-07-29T03:47:44;2.47;;;2.27;;
15153;SDS011;7677;41.896;25.004;2023-07-29T03:50:11;2.30;;;2.10;;
15153;SDS011;7677;41.896;25.004;2023-07-29T03:52:38;2.57;;;2.33;;
15153;SDS011;7677;41.896;25.004;2023-07-29T03:55:05;2.40;;;2.20;;
15153;SDS011;7677;41.896;25.004;2023-07-29T03:57:34;2.50;;;2.30;;
15153;SDS011;7677;41.896;25.004;2023-07-29T04:00:01;2.50;;;2.30;;
15153;SDS011;7677;41.896;25.004;2023-07-29T04:02:28;2.37;;;2.17;;
15153;SDS011;7677;41.896;25.004;2023-07-29T04:04:55;2.40;;;2.20;;
15153;SDS011;7677;41.896;25.004;2023-07-29T04:07:22;2.70;;;2.50;;
15153;SDS011;7677;41.896;25.004;2023-07-29T04:09:49;2.88;;;2.55;;
15153;SDS011;7677;41.896;25.004;2023-07-29T04:12:16;3.00;;;2.80;;
15153;SDS011;7677;41.896;25.004;2023-07-29T04:14:48;2.77;;;2.40;;
15153;SDS011;7677;41.896;25.004;2023-07-29T04:17:15;2.00;;;1.90;;
15153;SDS011;7677;41.896;25.004;2023-07-29T04:19:42;3.43;;;2.43;;
15153;SDS011;7677;41.896;25.004;2023-07-29T04:22:09;2.97;;;2.17;;
15153;SDS011;7677;41.896;25.004;2023-07-29T04:24:36;3.13;;;2.53;;
15153;SDS011;7677;41.896;25.004;2023-07-29T04:27:03;3.10;;;2.40;;
15153;SDS011;7677;41.896;25.004;2023-07-29T04:29:31;2.20;;;2.10;;
15153;SDS011;7677;41.896;25.004;2023-07-29T04:31:59;6.27;;;2.80;;
15153;SDS011;7677;41.896;25.004;2023-07-29T04:34:26;2.40;;;2.20;;
15153;SDS011;7677;41.896;25.004;2023-07-29T04:36:53;2.80;;;2.50;;
15153;SDS011;7677;41.896;25.004;2023-07-29T04:39:20;3.15;;;2.67;;
15153;SDS011;7677;41.896;25.004;2023-07-29T04:41:47;2.55;;;2.30;;
15153;SDS011;7677;41.896;25.004;2023-07-29T04:44:14;4.50;;;2.53;;
15153;SDS011;7677;41.896;25.004;2023-07-29T04:46:41;2.47;;;2.28;;
15153;SDS011;7677;41.896;25.004;2023-07-29T04:49:10;5.00;;;2.55;;
15153;SDS011;7677;41.896;25.004;2023-07-29T04:51:37;4.60;;;2.58;;
15153;SDS011;7677;41.896;25.004;2023-07-29T04:54:04;2.65;;;2.25;;
15153;SDS011;7677;41.896;25.004;2023-07-29T04:56:31;3.03;;;2.60;;
15153;SDS011;7677;41.896;25.004;2023-07-29T04:58:58;2.28;;;2.08;;
15153;SDS011;7677;41.896;25.004;2023-07-29T05:01:25;2.70;;;2.45;;
15153;SDS011;7677;41.896;25.004;2023-07-29T05:03:52;4.53;;;2.67;;
15153;SDS011;7677;41.896;25.004;2023-07-29T05:06:20;2.88;;;2.20;;
15153;SDS011;7677;41.896;25.004;2023-07-29T05:08:47;2.47;;;2.28;;
15153;SDS011;7677;41.896;25.004;2023-07-29T05:11:14;2.70;;;2.50;;
15153;SDS011;7677;41.896;25.004;2023-07-29T05:13:41;3.10;;;2.80;;
15153;SDS011;7677;41.896;25.004;2023-07-29T05:16:09;2.25;;;2.13;;
15153;SDS011;7677;41.896;25.004;2023-07-29T05:18:36;2.30;;;2.10;;
15153;SDS011;7677;41.896;25.004;2023-07-29T05:21:03;2.50;;;2.30;;
15153;SDS011;7677;41.896;25.004;2023-07-29T05:23:31;2.47;;;2.28;;
15153;SDS011;7677;41.896;25.004;2023-07-29T05:25:58;2.42;;;2.22;;
15153;SDS011;7677;41.896;25.004;2023-07-29T05:28:25;3.58;;;2.45;;
15153;SDS011;7677;41.896;25.004;2023-07-29T05:30:52;2.63;;;2.42;;
15153;SDS011;7677;41.896;25.004;2023-07-29T05:33:19;2.72;;;2.53;;
15153;SDS011;7677;41.896;25.004;2023-07-29T05:35:46;2.30;;;2.10;;
15153;SDS011;7677;41.896;25.004;2023-07-29T05:38:13;2.53;;;2.30;;
15153;SDS011;7677;41.896;25.004;2023-07-29T05:40:42;2.65;;;2.45;;
15153;SDS011;7677;41.896;25.004;2023-07-29T05:43:09;4.10;;;2.40;;
15153;SDS011;7677;41.896;25.004;2023-07-29T05:45:36;2.97;;;2.47;;
15153;SDS011;7677;41.896;25.004;2023-07-29T05:48:03;3.08;;;2.35;;
15153;SDS011;7677;41.896;25.004;2023-07-29T05:50:30;2.58;;;2.38;;
15153;SDS011;7677;41.896;25.004;2023-07-29T05:52:57;2.30;;;2.15;;
15153;SDS011;7677;41.896;25.004;2023-07-29T05:55:25;3.97;;;2.80;;
15153;SDS011;7677;41.896;25.004;2023-07-29T05:57:53;2.67;;;2.47;;
15153;SDS011;7677;41.896;25.004;2023-07-29T06:00:20;2.38;;;2.20;;
15153;SDS011;7677;41.896;25.004;2023-07-29T06:02:47;3.72;;;2.45;;
15153;SDS011;7677;41.896;25.004;2023-07-29T06:05:14;3.85;;;2.60;;
15153;SDS011;7677;41.896;25.004;2023-07-29T06:07:41;2.45;;;2.25;;
15153;SDS011;7677;41.896;25.004;2023-07-29T06:10:10;3.53;;;3.00;;
15153;SDS011;7677;41.896;25.004;2023-07-29T06:12:38;2.97;;;2.45;;
15153;SDS011;7677;41.896;25.004;2023-07-29T06:15:07;3.55;;;2.90;;
15153;SDS011;7677;41.896;25.004;2023-07-29T06:17:34;3.92;;;2.95;;
15153;SDS011;7677;41.896;25.004;2023-07-29T06:20:01;4.55;;;2.90;;
15153;SDS011;7677;41.896;25.004;2023-07-29T06:22:28;2.78;;;2.40;;
15153;SDS011;7677;41.896;25.004;2023-07-29T06:24:55;3.40;;;3.00;;
15153;SDS011;7677;41.896;25.004;2023-07-29T06:27:23;2.67;;;2.47;;
15153;SDS011;7677;41.896;25.004;2023-07-29T06:29:50;3.10;;;2.60;;
15153;SDS011;7677;41.896;25.004;2023-07-29T06:32:19;4.68;;;2.58;;
15153;SDS011;7677;41.896;25.004;2023-07-29T06:34:46;3.22;;;2.70;;
15153;SDS011;7677;41.896;25.004;2023-07-29T06:37:13;2.50;;;2.30;;
15153;SDS011;7677;41.896;25.004;2023-07-29T06:39:40;2.80;;;2.60;;
15153;SDS011;7677;41.896;25.004;2023-07-29T06:42:07;3.28;;;2.50;;
15153;SDS011;7677;41.896;25.004;2023-07-29T06:44:34;3.20;;;2.90;;
15153;SDS011;7677;41.896;25.004;2023-07-29T06:47:01;2.80;;;2.42;;
15153;SDS011;7677;41.896;25.004;2023-07-29T06:49:29;2.25;;;2.05;;
15153;SDS011;7677;41.896;25.004;2023-07-29T06:51:56;2.60;;;2.30;;
15153;SDS011;7677;41.896;25.004;2023-07-29T06:54:24;2.83;;;2.55;;
15153;SDS011;7677;41.896;25.004;2023-07-29T06:56:51;3.10;;;2.58;;
15153;SDS011;7677;41.896;25.004;2023-07-29T06:59:18;3.15;;;2.85;;
15153;SDS011;7677;41.896;25.004;2023-07-29T07:01:45;2.70;;;2.50;;
15153;SDS011;7677;41.896;25.004;2023-07-29T07:04:13;2.63;;;2.40;;
15153;SDS011;7677;41.896;25.004;2023-07-29T07:06:41;2.80;;;2.45;;
15153;SDS011;7677;41.896;25.004;2023-07-29T07:09:08;3.58;;;2.78;;
15153;SDS011;7677;41.896;25.004;2023-07-29T07:11:35;3.25;;;2.95;;
15153;SDS011;7677;41.896;25.004;2023-07-29T07:14:02;4.63;;;2.63;;
15153;SDS011;7677;41.896;25.004;2023-07-29T07:16:29;2.65;;;2.42;;
15153;SDS011;7677;41.896;25.004;2023-07-29T07:18:56;6.57;;;2.78;;
15153;SDS011;7677;41.896;25.004;2023-07-29T07:21:23;2.40;;;2.20;;
15153;SDS011;7677;41.896;25.004;2023-07-29T07:23:52;2.53;;;2.30;;
15153;SDS011;7677;41.896;25.004;2023-07-29T07:26:19;2.20;;;2.00;;
15153;SDS011;7677;41.896;25.004;2023-07-29T07:28:46;2.65;;;2.20;;
15153;SDS011;7677;41.896;25.004;2023-07-29T07:31:13;3.53;;;2.35;;
15153;SDS011;7677;41.896;25.004;2023-07-29T07:33:41;2.38;;;2.17;;
15153;SDS011;7677;41.896;25.004;2023-07-29T07:36:08;3.25;;;2.40;;
15153;SDS011;7677;41.896;25.004;2023-07-29T07:38:35;4.03;;;2.22;;
15153;SDS011;7677;41.896;25.004;2023-07-29T07:41:04;2.40;;;2.15;;
15153;SDS011;7677;41.896;25.004;2023-07-29T07:43:31;1.92;;;1.75;;
15153;SDS011;7677;41.896;25.004;2023-07-29T07:45:58;2.60;;;2.40;;
15153;SDS011;7677;41.896;25.004;2023-07-29T07:48:25;3.15;;;2.47;;
15153;SDS011;7677;41.896;25.004;2023-07-29T07:50:52;2.75;;;2.45;;
15153;SDS011;7677;41.896;25.004;2023-07-29T07:53:19;3.28;;;2.83;;
15153;SDS011;7677;41.896;25.004;2023-07-29T07:55:46;3.88;;;2.78;;
15153;SDS011;7677;41.896;25.004;2023-07-29T07:58:15;3.65;;;2.63;;
15153;SDS011;7677;41.896;25.004;2023-07-29T08:00:42;4.13;;;2.20;;
15153;SDS011;7677;41.896;25.004;2023-07-29T08:03:09;3.13;;;2.83;;
15153;SDS011;7677;41.896;25.004;2023-07-29T08:05:36;3.10;;;2.80;;
15153;SDS011;7677;41.896;25.004;2023-07-29T08:08:03;3.08;;;2.28;;
15153;SDS011;7677;41.896;25.004;2023-07-29T08:10:30;3.10;;;2.28;;
15153;SDS011;7677;41.896;25.004;2023-07-29T08:12:57;2.97;;;2.65;;
15153;SDS011;7677;41.896;25.004;2023-07-29T08:15:25;2.58;;;2.22;;
15153;SDS011;7677;41.896;25.004;2023-07-29T08:17:52;2.55;;;2.35;;
15153;SDS011;7677;41.896;25.004;2023-07-29T08:20:19;2.30;;;2.10;;
15153;SDS011;7677;41.896;25.004;2023-07-29T08:22:46;3.30;;;2.42;;
15153;SDS011;7677;41.896;25.004;2023-07-29T08:25:13;2.30;;;2.10;;
15153;SDS011;7677;41.896;25.004;2023-07-29T08:27:41;2.50;;;2.30;;
15153;SDS011;7677;41.896;25.004;2023-07-29T08:30:08;2.50;;;2.30;;
15153;SDS011;7677;41.896;25.004;2023-07-29T08:32:37;2.65;;;2.00;;
15153;SDS011;7677;41.896;25.004;2023-07-29T08:35:04;2.95;;;2.42;;
15153;SDS011;7677;41.896;25.004;2023-07-29T08:37:31;2.53;;;2.30;;
15153;SDS011;7677;41.896;25.004;2023-07-29T08:39:58;2.63;;;2.40;;
15153;SDS011;7677;41.896;25.004;2023-07-29T08:42:27;4.40;;;2.42;;
15153;SDS011;7677;41.896;25.004;2023-07-29T08:44:55;2.15;;;2.03;;
15153;SDS011;7677;41.896;25.004;2023-07-29T08:47:22;2.58;;;2.38;;
15153;SDS011;7677;41.896;25.004;2023-07-29T08:49:51;3.42;;;2.20;;
15153;SDS011;7677;41.896;25.004;2023-07-29T08:52:20;3.33;;;2.25;;
15153;SDS011;7677;41.896;25.004;2023-07-29T08:54:47;5.97;;;2.15;;
15153;SDS011;7677;41.896;25.004;2023-07-29T08:57:14;2.88;;;2.40;;
15153;SDS011;7677;41.896;25.004;2023-07-29T08:59:41;2.58;;;2.22;;
15153;SDS011;7677;41.896;25.004;2023-07-29T09:02:08;2.50;;;2.30;;
15153;SDS011;7677;41.896;25.004;2023-07-29T09:04:35;2.40;;;2.20;;
15153;SDS011;7677;41.896;25.004;2023-07-29T09:07:04;4.15;;;2.30;;
15153;SDS011;7677;41.896;25.004;2023-07-29T09:09:32;2.00;;;1.90;;
15153;SDS011;7677;41.896;25.004;2023-07-29T09:11:59;2.50;;;2.30;;
15153;SDS011;7677;41.896;25.004;2023-07-29T09:14:26;2.30;;;2.10;;
15153;SDS011;7677;41.896;25.004;2023-07-29T09:16:53;2.22;;;2.03;;
15153;SDS011;7677;41.896;25.004;2023-07-29T09:19:20;3.35;;;2.38;;
15153;SDS011;7677;41.896;25.004;2023-07-29T09:21:48;2.28;;;2.00;;
15153;SDS011;7677;41.896;25.004;2023-07-29T09:24:17;2.10;;;1.90;;
15153;SDS011;7677;41.896;25.004;2023-07-29T09:26:48;2.25;;;1.88;;
15153;SDS011;7677;41.896;25.004;2023-07-29T09:29:17;2.33;;;2.03;;
15153;SDS011;7677;41.896;25.004;2023-07-29T09:31:48;3.35;;;2.13;;
15153;SDS011;7677;41.896;25.004;2023-07-29T09:34:16;2.28;;;2.08;;
15153;SDS011;7677;41.896;25.004;2023-07-29T09:36:43;2.67;;;2.08;;
15153;SDS011;7677;41.896;25.004;2023-07-29T09:39:10;1.88;;;1.77;;
15153;SDS011;7677;41.896;25.004;2023-07-29T09:41:39;3.03;;;2.53;;
15153;SDS011;7677;41.896;25.004;2023-07-29T09:44:07;2.50;;;2.30;;
15153;SDS011;7677;41.896;25.004;2023-07-29T09:46:34;2.03;;;1.83;;
15153;SDS011;7677;41.896;25.004;2023-07-29T09:49:02;3.65;;;2.10;;
15153;SDS011;7677;41.896;25.004;2023-07-29T09:51:29;2.30;;;2.03;;
15153;SDS011;7677;41.896;25.004;2023-07-29T09:53:56;2.58;;;2.30;;
15153;SDS011;7677;41.896;25.004;2023-07-29T09:56:25;1.92;;;1.80;;
15153;SDS011;7677;41.896;25.004;2023-07-29T09:58:54;4.20;;;2.03;;
15153;SDS011;7677;41.896;25.004;2023-07-29T10:01:22;2.97;;;1.90;;
15153;SDS011;7677;41.896;25.004;2023-07-29T10:03:49;3.13;;;1.95;;
15153;SDS011;7677;41.896;25.004;2023-07-29T10:06:17;2.42;;;2.17;;
15153;SDS011;7677;41.896;25.004;2023-07-29T10:08:44;1.95;;;1.85;;
15153;SDS011;7677;41.896;25.004;2023-07-29T10:11:11;6.20;;;2.20;;
15153;SDS011;7677;41.896;25.004;2023-07-29T10:13:39;2.25;;;2.05;;
15153;SDS011;7677;41.896;25.004;2023-07-29T10:16:07;1.85;;;1.73;;
15153;SDS011;7677;41.896;25.004;2023-07-29T10:18:35;3.70;;;2.30;;
15153;SDS011;7677;41.896;25.004;2023-07-29T10:21:02;2.40;;;2.17;;
15153;SDS011;7677;41.896;25.004;2023-07-29T10:23:32;4.13;;;2.00;;
15153;SDS011;7677;41.896;25.004;2023-07-29T10:26:02;2.80;;;2.13;;
15153;SDS011;7677;41.896;25.004;2023-07-29T10:28:30;2.45;;;2.10;;
15153;SDS011;7677;41.896;25.004;2023-07-29T10:30:58;6.22;;;1.88;;
15153;SDS011;7677;41.896;25.004;2023-07-29T10:33:26;2.80;;;2.35;;
15153;SDS011;7677;41.896;25.004;2023-07-29T10:35:53;2.10;;;1.88;;
15153;SDS011;7677;41.896;25.004;2023-07-29T10:38:21;3.83;;;1.88;;
15153;SDS011;7677;41.896;25.004;2023-07-29T10:40:50;1.70;;;1.60;;
15153;SDS011;7677;41.896;25.004;2023-07-29T10:43:19;2.17;;;1.98;;
15153;SDS011;7677;41.896;25.004;2023-07-29T10:45:47;2.63;;;1.90;;
15153;SDS011;7677;41.896;25.004;2023-07-29T10:48:39;4.43;;;1.98;;
15153;SDS011;7677;41.896;25.004;2023-07-29T10:51:24;1.80;;;1.70;;
15153;SDS011;7677;41.896;25.004;2023-07-29T10:53:52;2.03;;;1.92;;
15153;SDS011;7677;41.896;25.004;2023-07-29T10:56:26;3.78;;;2.20;;
15153;SDS011;7677;41.896;25.004;2023-07-29T10:58:58;1.80;;;1.63;;
15153;SDS011;7677;41.896;25.004;2023-07-29T11:01:26;2.25;;;1.83;;
15153;SDS011;7677;41.896;25.004;2023-07-29T11:04:02;1.83;;;1.73;;
15153;SDS011;7677;41.896;25.004;2023-07-29T11:09:58;1.95;;;1.73;;
15153;SDS011;7677;41.896;25.004;2023-07-29T11:12:40;2.08;;;1.88;;
15153;SDS011;7677;41.896;25.004;2023-07-29T11:15:12;2.13;;;1.92;;
15153;SDS011;7677;41.896;25.004;2023-07-29T11:17:47;1.80;;;1.70;;
15153;SDS011;7677;41.896;25.004;2023-07-29T11:20:17;2.20;;;2.00;;
15153;SDS011;7677;41.896;25.004;2023-07-29T11:22:45;2.38;;;1.83;;
15153;SDS011;7677;41.896;25.004;2023-07-29T11:25:12;3.25;;;1.83;;
15153;SDS011;7677;41.896;25.004;2023-07-29T11:27:40;1.83;;;1.52;;
15153;SDS011;7677;41.896;25.004;2023-07-29T11:30:08;2.13;;;1.90;;
15153;SDS011;7677;41.896;25.004;2023-07-29T11:32:36;2.78;;;1.70;;
15153;SDS011;7677;41.896;25.004;2023-07-29T11:35:05;3.03;;;1.60;;
15153;SDS011;7677;41.896;25.004;2023-07-29T11:37:35;2.45;;;1.50;;
15153;SDS011;7677;41.896;25.004;2023-07-29T11:40:03;1.52;;;1.35;;
15153;SDS011;7677;41.896;25.004;2023-07-29T11:42:31;3.20;;;1.98;;
15153;SDS011;7677;41.896;25.004;2023-07-29T11:44:59;1.80;;;1.70;;
15153;SDS011;7677;41.896;25.004;2023-07-29T11:47:26;1.95;;;1.75;;
15153;SDS011;7677;41.896;25.004;2023-07-29T11:49:53;2.28;;;1.95;;
15153;SDS011;7677;41.896;25.004;2023-07-29T11:52:20;3.25;;;1.65;;
15153;SDS011;7677;41.896;25.004;2023-07-29T11:54:49;1.70;;;1.60;;
15153;SDS011;7677;41.896;25.004;2023-07-29T11:57:16;1.50;;;1.40;;
15153;SDS011;7677;41.896;25.004;2023-07-29T11:59:44;2.25;;;2.03;;
15153;SDS011;7677;41.896;25.004;2023-07-29T12:02:12;2.05;;;1.63;;
15153;SDS011;7677;41.896;25.004;2023-07-29T12:04:40;1.77;;;1.67;;
15153;SDS011;7677;41.896;25.004;2023-07-29T12:07:08;1.83;;;1.60;;
15153;SDS011;7677;41.896;25.004;2023-07-29T12:09:35;2.47;;;1.83;;
15153;SDS011;7677;41.896;25.004;2023-07-29T12:12:05;2.00;;;1.80;;
15153;SDS011;7677;41.896;25.004;2023-07-29T12:14:33;1.63;;;1.50;;
15153;SDS011;7677;41.896;25.004;2023-07-29T12:17:00;1.65;;;1.55;;
15153;SDS011;7677;41.896;25.004;2023-07-29T12:19:31;1.67;;;1.58;;
15153;SDS011;7677;41.896;25.004;2023-07-29T12:21:59;1.60;;;1.50;;
15153;SDS011;7677;41.896;25.004;2023-07-29T12:24:26;1.75;;;1.52;;
15153;SDS011;7677;41.896;25.004;2023-07-29T12:26:53;1.73;;;1.58;;
15153;SDS011;7677;41.896;25.004;2023-07-29T12:29:22;2.03;;;1.77;;
15153;SDS011;7677;41.896;25.004;2023-07-29T12:31:49;1.80;;;1.70;;
15153;SDS011;7677;41.896;25.004;2023-07-29T12:34:24;2.20;;;1.40;;
15153;SDS011;7677;41.896;25.004;2023-07-29T12:36:52;1.95;;;1.63;;
15153;SDS011;7677;41.896;25.004;2023-07-29T12:39:21;2.35;;;1.52;;
15153;SDS011;7677;41.896;25.004;2023-07-29T12:41:50;1.50;;;1.40;;
15153;SDS011;7677;41.896;25.004;2023-07-29T12:44:18;1.58;;;1.48;;
15153;SDS011;7677;41.896;25.004;2023-07-29T12:46:46;1.90;;;1.70;;
15153;SDS011;7677;41.896;25.004;2023-07-29T12:49:13;1.70;;;1.50;;
15153;SDS011;7677;41.896;25.004;2023-07-29T12:51:41;1.50;;;1.40;;
15153;SDS011;7677;41.896;25.004;2023-07-29T12:54:08;1.50;;;1.40;;
15153;SDS011;7677;41.896;25.004;2023-07-29T12:56:35;1.75;;;1.65;;
15153;SDS011;7677;41.896;25.004;2023-07-29T12:59:02;1.50;;;1.40;;
15153;SDS011;7677;41.896;25.004;2023-07-29T13:01:29;1.35;;;1.20;;
15153;SDS011;7677;41.896;25.004;2023-07-29T13:03:58;1.85;;;1.63;;
15153;SDS011;7677;41.896;25.004;2023-07-29T13:06:25;1.80;;;1.70;;
15153;SDS011;7677;41.896;25.004;2023-07-29T13:08:52;2.38;;;1.90;;
15153;SDS011;7677;41.896;25.004;2023-07-29T13:11:19;2.42;;;1.60;;
15153;SDS011;7677;41.896;25.004;2023-07-29T13:13:46;2.60;;;1.50;;
15153;SDS011;7677;41.896;25.004;2023-07-29T13:16:13;1.70;;;1.60;;
15153;SDS011;7677;41.896;25.004;2023-07-29T13:18:40;1.60;;;1.50;;
15153;SDS011;7677;41.896;25.004;2023-07-29T13:21:09;1.67;;;1.58;;
15153;SDS011;7677;41.896;25.004;2023-07-29T13:23:36;1.30;;;1.25;;
15153;SDS011;7677;41.896;25.004;2023-07-29T13:26:03;1.10;;;1.10;;
15153;SDS011;7677;41.896;25.004;2023-07-29T13:28:30;1.55;;;1.30;;
15153;SDS011;7677;41.896;25.004;2023-07-29T13:30:57;1.63;;;1.52;;
15153;SDS011;7677;41.896;25.004;2023-07-29T13:33:24;1.40;;;1.30;;
15153;SDS011;7677;41.896;25.004;2023-07-29T13:35:51;1.38;;;1.27;;
15153;SDS011;7677;41.896;25.004;2023-07-29T13:38:19;1.60;;;1.50;;
15153;SDS011;7677;41.896;25.004;2023-07-29T13:40:48;1.52;;;1.38;;
15153;SDS011;7677;41.896;25.004;2023-07-29T13:43:16;1.50;;;1.40;;
15153;SDS011;7677;41.896;25.004;2023-07-29T13:45:44;1.45;;;1.35;;
15153;SDS011;7677;41.896;25.004;2023-07-29T13:48:13;2.42;;;1.30;;
15153;SDS011;7677;41.896;25.004;2023-07-29T13:50:40;1.40;;;1.30;;
15153;SDS011;7677;41.896;25.004;2023-07-29T13:53:09;1.40;;;1.30;;
15153;SDS011;7677;41.896;25.004;2023-07-29T13:55:37;1.38;;;1.27;;
15153;SDS011;7677;41.896;25.004;2023-07-29T13:58:04;2.75;;;1.20;;
15153;SDS011;7677;41.896;25.004;2023-07-29T14:00:31;1.60;;;1.40;;
15153;SDS011;7677;41.896;25.004;2023-07-29T14:02:58;2.60;;;1.40;;
15153;SDS011;7677;41.896;25.004;2023-07-29T14:05:25;1.40;;;1.30;;
15153;SDS011;7677;41.896;25.004;2023-07-29T14:07:52;1.73;;;1.63;;
15153;SDS011;7677;41.896;25.004;2023-07-29T14:10:19;1.38;;;1.27;;
15153;SDS011;7677;41.896;25.004;2023-07-29T14:12:47;1.67;;;1.58;;
15153;SDS011;7677;41.896;25.004;2023-07-29T14:15:14;1.40;;;1.30;;
15153;SDS011;7677;41.896;25.004;2023-07-29T14:17:42;3.08;;;1.20;;
15153;SDS011;7677;41.896;25.004;2023-07-29T14:20:09;1.30;;;1.20;;
15153;SDS011;7677;41.896;25.004;2023-07-29T14:22:37;1.05;;;1.00;;
15153;SDS011;7677;41.896;25.004;2023-07-29T14:25:04;3.17;;;1.50;;
15153;SDS011;7677;41.896;25.004;2023-07-29T14:27:32;1.40;;;1.30;;
15153;SDS011;7677;41.896;25.004;2023-07-29T14:30:01;1.38;;;1.27;;
15153;SDS011;7677;41.896;25.004;2023-07-29T14:32:28;1.70;;;1.60;;
15153;SDS011;7677;41.896;25.004;2023-07-29T14:34:55;1.60;;;1.30;;
15153;SDS011;7677;41.896;25.004;2023-07-29T14:37:22;1.30;;;1.20;;
15153;SDS011;7677;41.896;25.004;2023-07-29T14:39:49;1.50;;;1.40;;
15153;SDS011;7677;41.896;25.004;2023-07-29T14:42:17;1.85;;;1.50;;
15153;SDS011;7677;41.896;25.004;2023-07-29T14:44:44;2.35;;;1.55;;
15153;SDS011;7677;41.896;25.004;2023-07-29T14:47:12;1.50;;;1.40;;
15153;SDS011;7677;41.896;25.004;2023-07-29T14:49:39;2.47;;;1.40;;
15153;SDS011;7677;41.896;25.004;2023-07-29T14:52:07;4.20;;;1.70;;
15153;SDS011;7677;41.896;25.004;2023-07-29T14:54:34;3.60;;;2.58;;